createdAt,value
2019-02-18T00:00:29.918Z,9.97
2019-02-18T00:03:03.457Z,10.13
2019-02-18T00:05:36.871Z,9.07
2019-02-18T00:08:10.471Z,8.77
2019-02-18T00:10:43.799Z,10.63
2019-02-18T00:13:17.196Z,9.03
2019-02-18T00:15:50.741Z,9.00
2019-02-18T00:18:24.136Z,8.77
2019-02-18T00:20:57.469Z,9.90
2019-02-18T00:23:31.088Z,10.00
2019-02-18T00:26:04.508Z,8.83
2019-02-18T00:28:37.854Z,10.23
2019-02-18T00:31:11.308Z,9.20
2019-02-18T00:33:44.729Z,9.90
2019-02-18T00:36:18.168Z,10.67
2019-02-18T00:38:51.627Z,10.63
2019-02-18T00:41:25.117Z,9.83
2019-02-18T00:43:58.480Z,9.40
2019-02-18T00:46:31.878Z,10.33
2019-02-18T00:49:05.251Z,10.37
2019-02-18T00:51:38.644Z,10.03
2019-02-18T00:54:12.000Z,9.87
2019-02-18T00:56:45.393Z,9.23
2019-02-18T00:59:18.732Z,9.47
2019-02-18T01:01:52.099Z,10.03
2019-02-18T01:04:25.459Z,11.00
2019-02-18T01:06:58.839Z,9.53
2019-02-18T01:09:32.175Z,9.20
2019-02-18T01:12:05.537Z,9.53
2019-02-18T01:14:38.925Z,10.60
2019-02-18T01:17:12.358Z,9.97
2019-02-18T01:19:45.748Z,10.53
2019-02-18T01:22:19.114Z,10.90
2019-02-18T01:24:52.455Z,12.60
2019-02-18T01:27:25.807Z,8.70
2019-02-18T01:29:59.147Z,9.27
2019-02-18T01:32:32.525Z,11.63
2019-02-18T01:35:06.243Z,10.83
2019-02-18T01:37:45.870Z,8.80
2019-02-18T01:40:15.246Z,10.30
2019-02-18T01:42:48.603Z,10.87
2019-02-18T01:45:21.930Z,10.50
2019-02-18T01:47:55.354Z,10.37
2019-02-18T01:50:28.686Z,11.23
2019-02-18T01:53:02.037Z,11.03
2019-02-18T01:55:35.377Z,9.50
2019-02-18T01:58:08.771Z,17.33
2019-02-18T02:00:42.186Z,12.97
2019-02-18T02:03:15.554Z,14.63
2019-02-18T02:05:48.957Z,10.03
2019-02-18T02:08:22.311Z,11.53
2019-02-18T02:10:55.647Z,9.33
2019-02-18T02:13:31.531Z,10.23
2019-02-18T02:16:06.880Z,9.53
2019-02-18T02:18:40.245Z,8.80
2019-02-18T02:21:13.577Z,9.50
2019-02-18T02:23:47.008Z,12.30
2019-02-18T02:26:20.330Z,10.67
2019-02-18T02:28:53.698Z,10.53
2019-02-18T02:31:27.153Z,9.97
2019-02-18T02:34:00.514Z,9.87
2019-02-18T02:36:33.870Z,10.00
2019-02-18T02:39:07.302Z,10.20
2019-02-18T02:41:40.626Z,9.60
2019-02-18T02:44:14.052Z,9.20
2019-02-18T02:46:47.393Z,10.73
2019-02-18T02:49:20.831Z,10.17
2019-02-18T02:51:54.269Z,10.70
2019-02-18T02:54:27.718Z,11.23
2019-02-18T02:57:01.139Z,10.13
2019-02-18T02:59:34.577Z,12.60
2019-02-18T03:02:08.051Z,11.43
2019-02-18T03:04:41.594Z,10.90
2019-02-18T03:07:15.098Z,10.43
2019-02-18T03:09:50.640Z,10.20
2019-02-18T03:12:24.092Z,10.57
2019-02-18T03:14:57.568Z,10.40
2019-02-18T03:17:30.993Z,11.47
2019-02-18T03:20:06.767Z,11.20
2019-02-18T03:22:40.246Z,10.47
2019-02-18T03:25:21.094Z,10.73
2019-02-18T03:28:06.689Z,11.63
2019-02-18T03:30:49.450Z,11.40
2019-02-18T03:33:34.787Z,13.30
2019-02-18T03:36:08.279Z,11.00
2019-02-18T03:38:41.703Z,10.83
2019-02-18T03:41:15.177Z,13.00
2019-02-18T03:43:48.568Z,14.73
2019-02-18T03:46:22.072Z,11.93
2019-02-18T03:48:55.468Z,11.37
2019-02-18T03:51:28.901Z,11.70
2019-02-18T03:54:02.384Z,11.23
2019-02-18T03:56:35.916Z,11.37
2019-02-18T03:59:09.389Z,10.80
2019-02-18T04:01:42.853Z,11.00
2019-02-18T04:04:16.445Z,13.23
2019-02-18T04:06:50.010Z,10.53
2019-02-18T04:09:23.495Z,11.03
2019-02-18T04:11:56.850Z,12.03
2019-02-18T04:14:30.429Z,11.10
2019-02-18T04:17:03.925Z,10.60
2019-02-18T04:19:37.428Z,9.90
2019-02-18T04:22:10.914Z,10.47
2019-02-18T04:24:44.743Z,10.37
2019-02-18T04:27:18.116Z,9.77
2019-02-18T04:29:51.492Z,10.40
2019-02-18T04:32:24.966Z,11.03
2019-02-18T04:34:58.381Z,10.70
2019-02-18T04:37:31.836Z,10.17
2019-02-18T04:40:07.220Z,9.87
2019-02-18T04:42:40.618Z,11.03
2019-02-18T04:45:14.049Z,10.53
2019-02-18T04:47:47.517Z,11.10
2019-02-18T04:50:20.880Z,10.77
2019-02-18T04:52:54.337Z,10.40
2019-02-18T04:55:27.785Z,11.07
2019-02-18T04:58:01.250Z,11.27
2019-02-18T05:00:34.751Z,10.20
2019-02-18T05:03:08.216Z,10.80
2019-02-18T05:05:41.739Z,11.13
2019-02-18T05:08:15.152Z,11.63
2019-02-18T05:10:48.541Z,10.30
2019-02-18T05:13:21.952Z,11.00
2019-02-18T05:15:55.375Z,11.43
2019-02-18T05:18:28.951Z,11.00
2019-02-18T05:21:02.300Z,10.50
2019-02-18T05:23:35.791Z,11.50
2019-02-18T05:26:09.153Z,10.60
2019-02-18T05:28:42.693Z,11.27
2019-02-18T05:31:16.055Z,10.37
2019-02-18T05:33:49.574Z,10.73
2019-02-18T05:36:23.054Z,12.23
2019-02-18T05:38:56.496Z,10.93
2019-02-18T05:41:31.195Z,12.03
2019-02-18T05:44:05.071Z,12.67
2019-02-18T05:46:38.548Z,10.40
2019-02-18T05:49:11.963Z,9.77
2019-02-18T05:51:45.451Z,11.03
2019-02-18T05:54:18.802Z,10.73
2019-02-18T05:56:52.344Z,10.80
2019-02-18T05:59:25.765Z,10.17
2019-02-18T06:01:59.216Z,10.13
2019-02-18T06:04:32.639Z,9.73
2019-02-18T06:07:06.090Z,10.40
2019-02-18T06:09:39.582Z,11.43
2019-02-18T06:12:13.171Z,10.50
2019-02-18T06:14:46.622Z,9.67
2019-02-18T06:17:19.998Z,9.97
2019-02-18T06:19:53.562Z,9.83
2019-02-18T06:22:27.023Z,10.03
2019-02-18T06:25:00.575Z,10.40
2019-02-18T06:27:34.040Z,11.33
2019-02-18T06:30:10.204Z,10.60
2019-02-18T06:32:43.721Z,11.00
2019-02-18T06:35:17.165Z,10.40
2019-02-18T06:37:50.699Z,11.47
2019-02-18T06:40:24.128Z,12.70
2019-02-18T06:42:57.689Z,10.50
2019-02-18T06:45:35.829Z,9.43
2019-02-18T06:48:13.625Z,10.07
2019-02-18T06:50:47.045Z,11.07
2019-02-18T06:53:20.461Z,11.00
2019-02-18T06:55:53.890Z,10.03
2019-02-18T06:58:32.083Z,10.90
2019-02-18T07:01:07.148Z,13.67
2019-02-18T07:03:44.697Z,11.27
2019-02-18T07:06:25.422Z,9.77
2019-02-18T07:11:50.304Z,10.80
2019-02-18T07:14:23.693Z,11.10
2019-02-18T07:16:57.078Z,11.10
2019-02-18T07:19:30.690Z,9.80
2019-02-18T07:22:04.287Z,9.60
2019-02-18T07:24:37.693Z,10.53
2019-02-18T07:27:11.239Z,10.97
2019-02-18T07:29:44.689Z,9.47
2019-02-18T07:32:18.157Z,9.70
2019-02-18T07:34:51.685Z,9.63
2019-02-18T07:37:25.198Z,12.83
2019-02-18T07:40:01.580Z,10.10
2019-02-18T07:42:33.859Z,13.30
2019-02-18T07:45:09.487Z,9.73
2019-02-18T07:47:42.912Z,8.40
2019-02-18T07:50:20.618Z,9.40
2019-02-18T07:52:51.503Z,9.03
2019-02-18T07:55:24.861Z,9.77
2019-02-18T07:57:58.322Z,9.27
2019-02-18T08:00:32.227Z,9.57
2019-02-18T08:03:05.676Z,9.30
2019-02-18T08:05:39.145Z,9.33
2019-02-18T08:08:12.543Z,9.97
2019-02-18T08:10:46.009Z,11.20
2019-02-18T08:13:19.634Z,11.90
2019-02-18T08:15:53.085Z,10.40
2019-02-18T08:18:26.619Z,9.57
2019-02-18T08:21:00.031Z,9.23
2019-02-18T08:23:33.515Z,9.40
2019-02-18T08:26:07.110Z,11.83
2019-02-18T08:28:40.576Z,11.00
2019-02-18T08:31:14.070Z,10.53
2019-02-18T08:33:47.540Z,27.23
2019-02-18T08:36:22.970Z,13.67
2019-02-18T08:38:56.166Z,13.97
2019-02-18T08:41:29.601Z,14.20
2019-02-18T08:44:03.129Z,13.10
2019-02-18T08:46:36.567Z,11.40
2019-02-18T08:49:10.045Z,11.80
2019-02-18T08:51:43.408Z,10.27
2019-02-18T08:54:16.822Z,10.50
2019-02-18T08:56:50.305Z,9.50
2019-02-18T08:59:23.874Z,9.87
2019-02-18T09:01:57.355Z,9.60
2019-02-18T09:04:30.811Z,10.67
2019-02-18T09:07:04.294Z,9.37
2019-02-18T09:09:37.693Z,9.20
2019-02-18T09:12:11.104Z,8.43
2019-02-18T09:14:44.603Z,9.33
2019-02-18T09:17:18.231Z,8.73
2019-02-18T09:19:53.375Z,8.57
2019-02-18T09:22:44.533Z,8.93
2019-02-18T09:25:22.120Z,9.43
2019-02-18T09:27:55.685Z,8.93
2019-02-18T09:30:30.701Z,8.37
2019-02-18T09:33:04.442Z,8.80
2019-02-18T09:35:37.895Z,11.87
2019-02-18T09:38:11.447Z,8.23
2019-02-18T09:40:50.561Z,9.83
2019-02-18T09:43:20.217Z,9.27
2019-02-18T09:45:53.701Z,9.03
2019-02-18T09:48:27.246Z,10.10
2019-02-18T09:51:00.884Z,9.30
2019-02-18T09:53:34.420Z,9.63
2019-02-18T09:56:08.010Z,9.17
2019-02-18T09:58:41.493Z,8.90
2019-02-18T10:01:14.990Z,9.55
2019-02-18T10:03:48.550Z,9.47
2019-02-18T10:06:22.049Z,9.73
2019-02-18T10:08:55.524Z,8.83
2019-02-18T10:11:29.005Z,9.35
2019-02-18T10:14:02.503Z,9.97
2019-02-18T10:16:35.939Z,10.10
2019-02-18T10:19:09.389Z,8.87
2019-02-18T10:21:42.953Z,9.37
2019-02-18T10:24:16.753Z,10.43
2019-02-18T10:26:50.288Z,9.83
2019-02-18T10:29:23.813Z,10.72
2019-02-18T10:31:57.319Z,9.90
2019-02-18T10:34:30.837Z,10.10
2019-02-18T10:37:04.441Z,9.97
2019-02-18T10:39:37.853Z,16.40
2019-02-18T10:42:11.290Z,9.83
2019-02-18T10:44:44.785Z,10.08
2019-02-18T10:47:18.245Z,9.50
2019-02-18T10:49:51.744Z,10.43
2019-02-18T10:52:25.306Z,9.88
2019-02-18T10:54:58.765Z,9.58
2019-02-18T10:57:32.360Z,10.32
2019-02-18T11:00:17.633Z,10.28
2019-02-18T11:02:51.135Z,10.98
2019-02-18T11:05:24.672Z,10.70
2019-02-18T11:07:58.183Z,8.70
2019-02-18T11:10:32.145Z,10.10
2019-02-18T11:13:05.519Z,9.05
2019-02-18T11:15:39.031Z,9.95
2019-02-18T11:18:12.556Z,11.53
2019-02-18T11:20:45.950Z,8.85
2019-02-18T11:23:19.441Z,10.10
2019-02-18T11:25:53.156Z,11.22
2019-02-18T11:28:26.619Z,9.00
2019-02-18T11:31:00.303Z,9.40
2019-02-18T11:33:33.846Z,8.70
2019-02-18T11:36:07.542Z,9.23
2019-02-18T11:38:40.993Z,9.33
2019-02-18T11:41:14.561Z,8.70
2019-02-18T11:43:48.120Z,8.00
2019-02-18T11:46:22.146Z,8.55
2019-02-18T11:48:55.635Z,9.60
2019-02-18T11:51:29.270Z,8.78
2019-02-18T11:54:02.781Z,8.75
2019-02-18T11:56:36.350Z,8.58
2019-02-18T11:59:09.879Z,10.00
2019-02-18T12:01:43.450Z,8.45
2019-02-18T12:04:16.881Z,8.58
2019-02-18T12:06:50.415Z,8.98
2019-02-18T12:09:23.880Z,9.73
2019-02-18T12:11:57.394Z,9.25
2019-02-18T12:14:30.867Z,8.20
2019-02-18T12:17:04.389Z,8.10
2019-02-18T12:19:37.845Z,8.88
2019-02-18T12:22:12.077Z,11.00
2019-02-18T12:24:45.741Z,12.98
2019-02-18T12:27:19.257Z,9.63
2019-02-18T12:29:53.406Z,10.18
2019-02-18T12:32:27.117Z,9.08
2019-02-18T12:35:00.664Z,6.58
2019-02-18T12:37:34.219Z,9.43
2019-02-18T12:40:11.970Z,8.53
2019-02-18T12:42:45.414Z,9.55
2019-02-18T12:45:18.958Z,10.85
2019-02-18T12:47:52.469Z,10.32
2019-02-18T12:50:26.044Z,9.20
2019-02-18T12:52:59.983Z,14.18
2019-02-18T12:55:33.806Z,11.12
2019-02-18T12:58:07.565Z,15.03
2019-02-18T13:00:41.181Z,15.08
2019-02-18T13:03:14.611Z,15.90
2019-02-18T13:05:48.455Z,14.00
2019-02-18T13:08:21.836Z,13.80
2019-02-18T13:10:55.417Z,13.28
2019-02-18T13:13:31.345Z,21.97
2019-02-18T13:16:04.204Z,24.05
2019-02-18T13:18:38.090Z,21.02
2019-02-18T13:21:11.655Z,19.17
2019-02-18T13:23:45.196Z,18.40
2019-02-18T13:26:18.665Z,15.98
2019-02-18T13:28:52.136Z,14.30
2019-02-18T13:31:25.625Z,14.00
2019-02-18T13:33:59.086Z,11.65
2019-02-18T13:36:32.619Z,11.88
2019-02-18T13:39:06.248Z,14.50
2019-02-18T13:41:40.218Z,11.97
2019-02-18T13:44:13.692Z,10.80
2019-02-18T13:46:47.112Z,11.03
2019-02-18T13:49:20.628Z,10.18
2019-02-18T13:51:56.519Z,11.50
2019-02-18T13:54:29.347Z,10.53
2019-02-18T13:57:09.774Z,11.50
2019-02-18T13:59:37.982Z,11.73
2019-02-18T14:02:11.646Z,11.95
2019-02-18T14:04:45.089Z,10.72
2019-02-18T14:07:18.580Z,12.47
2019-02-18T14:09:52.162Z,11.48
2019-02-18T14:12:25.668Z,12.28
2019-02-18T14:14:59.571Z,11.55
2019-02-18T14:17:33.030Z,11.15
2019-02-18T14:20:11.597Z,10.68
2019-02-18T14:22:45.161Z,10.10
2019-02-18T14:25:19.061Z,9.90
2019-02-18T14:27:52.605Z,10.95
2019-02-18T14:30:26.169Z,13.43
2019-02-18T14:32:59.756Z,9.38
2019-02-18T14:35:33.215Z,12.15
2019-02-18T14:38:06.753Z,10.80
2019-02-18T14:40:40.353Z,11.10
2019-02-18T14:43:13.846Z,11.22
2019-02-18T14:45:47.292Z,10.90
2019-02-18T14:48:20.825Z,11.40
2019-02-18T14:50:56.779Z,11.35
2019-02-18T14:53:29.558Z,9.85
2019-02-18T14:56:03.569Z,10.00
2019-02-18T14:58:37.382Z,14.50
2019-02-18T15:01:10.985Z,12.47
2019-02-18T15:03:44.448Z,11.85
2019-02-18T15:06:18.028Z,12.43
2019-02-18T15:08:51.468Z,15.65
2019-02-18T15:11:24.884Z,13.08
2019-02-18T15:13:58.470Z,14.68
2019-02-18T15:16:31.939Z,13.38
2019-02-18T15:19:05.557Z,13.55
2019-02-18T15:21:39.095Z,11.93
2019-02-18T15:24:12.535Z,12.73
2019-02-18T15:26:46.082Z,12.45
2019-02-18T15:29:19.609Z,15.23
2019-02-18T15:31:53.460Z,11.38
2019-02-18T15:34:27.055Z,11.12
2019-02-18T15:37:00.512Z,10.50
2019-02-18T15:39:33.958Z,9.85
2019-02-18T15:42:07.446Z,9.03
2019-02-18T15:44:41.039Z,11.25
2019-02-18T15:47:14.661Z,8.65
2019-02-18T15:49:48.134Z,9.33
2019-02-18T15:52:21.806Z,9.18
2019-02-18T15:54:55.301Z,8.25
2019-02-18T15:57:28.881Z,9.05
2019-02-18T16:00:02.382Z,8.35
2019-02-18T16:02:35.920Z,8.10
2019-02-18T16:05:09.859Z,7.00
2019-02-18T16:07:43.438Z,9.45
2019-02-18T16:10:16.938Z,8.25
2019-02-18T16:12:51.170Z,8.75
2019-02-18T16:15:24.752Z,7.60
2019-02-18T16:17:58.284Z,7.45
2019-02-18T16:20:31.808Z,6.80
2019-02-18T16:23:05.298Z,7.60
2019-02-18T16:25:38.901Z,11.10
2019-02-18T16:28:12.744Z,6.25
2019-02-18T16:30:46.200Z,6.45
2019-02-18T16:33:19.781Z,6.95
2019-02-18T16:35:53.445Z,7.15
2019-02-18T16:38:27.004Z,8.10
2019-02-18T16:41:00.461Z,7.12
2019-02-18T16:43:34.297Z,11.50
2019-02-18T16:46:07.815Z,10.28
2019-02-18T16:48:41.695Z,10.82
2019-02-18T16:51:15.212Z,9.30
2019-02-18T16:53:48.694Z,8.47
2019-02-18T16:56:22.239Z,8.83
2019-02-18T16:58:55.742Z,9.50
2019-02-18T17:01:29.346Z,8.07
2019-02-18T17:04:02.962Z,8.07
2019-02-18T17:06:36.489Z,7.33
2019-02-18T17:09:12.984Z,5.60
2019-02-18T17:11:46.689Z,5.60
2019-02-18T17:14:20.138Z,5.43
2019-02-18T17:16:55.089Z,19.90
2019-02-18T17:19:28.608Z,10.73
2019-02-18T17:22:02.092Z,14.87
2019-02-18T17:24:35.617Z,11.90
2019-02-18T17:27:09.091Z,20.20
2019-02-18T17:29:42.630Z,12.20
2019-02-18T17:32:16.127Z,7.63
2019-02-18T17:34:49.560Z,5.67
2019-02-18T17:37:23.100Z,5.60
2019-02-18T17:39:56.650Z,6.37
2019-02-18T17:42:30.274Z,7.77
2019-02-18T17:45:04.848Z,6.67
2019-02-18T17:47:38.626Z,5.93
2019-02-18T17:50:14.726Z,9.23
2019-02-18T17:52:48.227Z,14.87
2019-02-18T17:55:21.822Z,9.63
2019-02-18T17:57:55.371Z,9.70
2019-02-18T18:00:30.461Z,11.73
2019-02-18T18:03:03.997Z,10.67
2019-02-18T18:05:37.420Z,7.70
2019-02-18T18:08:10.949Z,9.50
2019-02-18T18:10:44.395Z,9.90
2019-02-18T18:13:24.965Z,8.63
2019-02-18T18:15:53.206Z,9.53
2019-02-18T18:18:26.852Z,8.63
2019-02-18T18:21:00.341Z,7.07
2019-02-18T18:23:34.125Z,8.20
2019-02-18T18:26:07.554Z,7.20
2019-02-18T18:28:41.230Z,8.87
2019-02-18T18:31:14.673Z,9.73
2019-02-18T18:33:48.258Z,12.97
2019-02-18T18:36:21.687Z,28.20
2019-02-18T18:38:55.218Z,20.07
2019-02-18T18:41:28.666Z,25.17
2019-02-18T18:44:02.083Z,22.33
2019-02-18T18:46:35.538Z,16.77
2019-02-18T18:49:08.937Z,15.73
2019-02-18T18:51:42.777Z,14.17
2019-02-18T18:54:16.326Z,13.77
2019-02-18T18:56:49.808Z,13.33
2019-02-18T18:59:23.384Z,19.07
2019-02-18T19:01:59.363Z,18.23
2019-02-18T19:04:32.894Z,20.57
2019-02-18T19:07:06.785Z,17.87
2019-02-18T19:09:40.328Z,24.97
2019-02-18T19:12:14.184Z,19.50
2019-02-18T19:14:47.710Z,14.37
2019-02-18T19:17:21.259Z,13.73
2019-02-18T19:19:57.821Z,12.13
2019-02-18T19:22:30.373Z,11.00
2019-02-18T19:25:04.224Z,9.03
2019-02-18T19:27:37.771Z,9.33
2019-02-18T19:30:34.253Z,7.87
2019-02-18T19:33:07.796Z,7.63
2019-02-18T19:35:41.405Z,8.80
2019-02-18T19:38:14.916Z,10.13
2019-02-18T19:40:48.568Z,8.37
2019-02-18T19:43:22.029Z,7.87
2019-02-18T19:45:55.720Z,7.20
2019-02-18T19:48:29.217Z,10.77
2019-02-18T19:51:02.798Z,9.03
2019-02-18T19:53:36.362Z,9.37
2019-02-18T19:56:09.794Z,8.90
2019-02-18T19:58:43.318Z,9.93
2019-02-18T20:01:16.762Z,8.03
2019-02-18T20:03:52.054Z,7.67
2019-02-18T20:06:25.468Z,7.67
2019-02-18T20:08:58.942Z,8.47
2019-02-18T20:11:32.526Z,8.40
2019-02-18T20:14:06.497Z,7.00
2019-02-18T20:16:39.930Z,7.20
2019-02-18T20:19:13.358Z,6.37
2019-02-18T20:21:46.830Z,6.73
2019-02-18T20:24:20.360Z,7.30
2019-02-18T20:26:53.859Z,10.63
2019-02-18T20:29:27.432Z,8.20
2019-02-18T20:32:00.824Z,7.97
2019-02-18T20:34:34.371Z,7.37
2019-02-18T20:37:08.354Z,9.17
2019-02-18T20:39:41.887Z,8.70
2019-02-18T20:42:17.019Z,7.40
2019-02-18T20:44:50.744Z,8.07
2019-02-18T20:47:24.122Z,7.40
2019-02-18T20:49:57.783Z,7.50
2019-02-18T20:52:31.298Z,6.83
2019-02-18T20:55:06.097Z,6.60
2019-02-18T20:57:40.066Z,7.37
2019-02-18T21:00:20.118Z,10.67
2019-02-18T21:02:53.609Z,19.23
2019-02-18T21:05:27.141Z,24.80
2019-02-18T21:08:01.202Z,26.10
2019-02-18T21:10:34.702Z,29.13
2019-02-18T21:13:08.283Z,19.70
2019-02-18T21:15:41.839Z,12.87
2019-02-18T21:18:15.737Z,14.03
2019-02-18T21:20:51.193Z,17.10
2019-02-18T21:23:24.608Z,25.23
2019-02-18T21:25:58.035Z,27.97
2019-02-18T21:28:31.636Z,13.57
2019-02-18T21:31:05.174Z,8.93
2019-02-18T21:33:39.654Z,10.83
2019-02-18T21:36:13.225Z,9.03
2019-02-18T21:38:46.641Z,9.03
2019-02-18T21:41:20.089Z,8.53
2019-02-18T21:43:53.647Z,8.43
2019-02-18T21:46:27.188Z,11.13
2019-02-18T21:49:00.697Z,10.27
2019-02-18T21:51:34.788Z,10.20
2019-02-18T21:54:08.229Z,10.87
2019-02-18T21:56:41.808Z,10.90
2019-02-18T21:59:15.233Z,14.33
2019-02-18T22:01:48.620Z,11.30
2019-02-18T22:04:23.640Z,11.50
2019-02-18T22:06:57.211Z,12.43
2019-02-18T22:09:30.650Z,11.37
2019-02-18T22:12:04.134Z,12.17
2019-02-18T22:14:37.852Z,11.00
2019-02-18T22:17:11.447Z,10.50
2019-02-18T22:19:44.904Z,11.97
2019-02-18T22:22:18.449Z,12.77
2019-02-18T22:24:51.928Z,13.10
2019-02-18T22:27:25.499Z,12.33
2019-02-18T22:29:58.920Z,10.50
2019-02-18T22:32:32.451Z,10.87
2019-02-18T22:35:06.804Z,13.03
2019-02-18T22:37:40.638Z,12.40
2019-02-18T22:40:14.687Z,12.77
2019-02-18T22:42:48.149Z,12.27
2019-02-18T22:45:21.692Z,17.23
2019-02-18T22:47:55.174Z,14.23
2019-02-18T22:50:28.660Z,11.80
2019-02-18T22:53:02.181Z,12.17
2019-02-18T22:55:35.806Z,11.10
2019-02-18T22:58:09.249Z,12.23
2019-02-18T23:00:52.761Z,12.57
2019-02-18T23:03:26.567Z,12.00
2019-02-18T23:06:00.060Z,12.67
2019-02-18T23:08:33.506Z,12.63
2019-02-18T23:11:07.444Z,13.30
2019-02-18T23:13:40.970Z,13.97
2019-02-18T23:16:14.450Z,11.13
2019-02-18T23:18:47.961Z,12.57
2019-02-18T23:21:21.533Z,11.70
2019-02-18T23:23:54.959Z,11.47
2019-02-18T23:26:28.460Z,11.73
2019-02-18T23:29:01.942Z,11.37
2019-02-18T23:31:35.588Z,11.63
2019-02-18T23:34:09.601Z,11.47
2019-02-18T23:36:43.063Z,13.33
2019-02-18T23:39:16.500Z,12.13
2019-02-18T23:41:50.080Z,12.43
2019-02-18T23:44:23.503Z,10.90
2019-02-18T23:46:57.039Z,13.17
2019-02-18T23:49:30.488Z,12.53
2019-02-18T23:52:04.079Z,13.20
2019-02-18T23:54:37.588Z,11.37
2019-02-18T23:57:11.120Z,11.50
2019-02-18T23:59:44.617Z,11.43
